createdAt,value
2022-10-05T00:00:01.568Z,11.58
2022-10-05T00:02:33.409Z,11.62
2022-10-05T00:05:06.996Z,11.58
2022-10-05T00:07:37.338Z,11.64
2022-10-05T00:10:10.823Z,11.64
2022-10-05T00:12:41.502Z,11.59
2022-10-05T00:15:13.799Z,11.50
2022-10-05T00:17:44.168Z,11.52
2022-10-05T00:20:20.528Z,11.59
2022-10-05T00:23:00.133Z,11.68
2022-10-05T00:25:30.531Z,11.62
2022-10-05T00:28:02.249Z,11.49
2022-10-05T00:30:34.675Z,11.45
2022-10-05T00:33:04.983Z,11.43
2022-10-05T00:35:37.001Z,11.39
2022-10-05T00:38:07.440Z,11.36
2022-10-05T00:41:02.168Z,11.36
2022-10-05T00:43:47.371Z,11.44
2022-10-05T00:46:29.240Z,11.32
2022-10-05T00:49:14.658Z,11.28
2022-10-05T00:51:48.059Z,11.28
2022-10-05T00:54:21.536Z,11.26
2022-10-05T00:57:11.639Z,11.23
2022-10-05T00:59:50.902Z,11.24
2022-10-05T01:02:37.102Z,11.20
2022-10-05T01:05:27.333Z,11.25
2022-10-05T01:08:20.311Z,11.36
2022-10-05T01:11:11.921Z,11.28
2022-10-05T01:13:51.422Z,11.46
2022-10-05T01:16:49.849Z,11.36
2022-10-05T01:19:40.255Z,11.42
2022-10-05T01:22:16.676Z,11.34
2022-10-05T01:24:53.041Z,11.32
2022-10-05T01:27:39.068Z,11.28
2022-10-05T01:30:15.546Z,11.38
2022-10-05T01:33:04.012Z,11.33
2022-10-05T01:35:39.888Z,11.32
2022-10-05T01:38:25.278Z,11.24
2022-10-05T01:41:21.414Z,11.26
2022-10-05T01:43:57.676Z,11.18
2022-10-05T01:46:46.618Z,11.19
2022-10-05T01:49:39.827Z,11.17
2022-10-05T01:52:22.035Z,11.12
2022-10-05T01:55:18.218Z,11.03
2022-10-05T01:58:00.466Z,11.10
2022-10-05T02:00:33.893Z,11.02
2022-10-05T02:03:10.393Z,10.98
2022-10-05T02:05:43.900Z,10.98
2022-10-05T02:08:26.475Z,10.96
2022-10-05T02:11:02.716Z,10.92
2022-10-05T02:13:39.151Z,10.92
2022-10-05T02:16:29.241Z,11.00
2022-10-05T02:19:21.114Z,10.87
2022-10-05T02:22:12.792Z,10.81
2022-10-05T02:24:46.238Z,10.78
2022-10-05T02:27:19.779Z,11.00
2022-10-05T02:29:51.639Z,10.78
2022-10-05T02:32:25.107Z,10.80
2022-10-05T02:34:58.579Z,10.78
2022-10-05T02:37:43.471Z,10.74
2022-10-05T02:40:25.495Z,10.76
2022-10-05T02:42:58.970Z,10.72
2022-10-05T02:45:38.028Z,10.66
2022-10-05T02:48:17.508Z,10.64
2022-10-05T02:51:03.126Z,10.58
2022-10-05T02:53:54.659Z,10.58
2022-10-05T02:56:33.839Z,10.56
2022-10-05T02:59:24.923Z,10.55
2022-10-05T03:02:16.464Z,10.56
2022-10-05T03:05:08.043Z,10.63
2022-10-05T03:07:56.487Z,10.54
2022-10-05T03:10:42.311Z,10.61
2022-10-05T03:13:24.726Z,10.64
2022-10-05T03:16:19.327Z,10.66
2022-10-05T03:19:13.869Z,10.70
2022-10-05T03:21:50.143Z,10.67
2022-10-05T03:24:32.175Z,10.67
2022-10-05T03:27:08.728Z,10.65
2022-10-05T03:29:57.043Z,10.71
2022-10-05T03:32:39.385Z,10.86
2022-10-05T03:35:32.447Z,10.78
2022-10-05T03:38:20.970Z,10.82
2022-10-05T03:41:03.193Z,10.87
2022-10-05T03:43:51.882Z,10.90
2022-10-05T03:46:49.977Z,10.95
2022-10-05T03:49:41.575Z,10.85
2022-10-05T03:52:22.521Z,10.86
2022-10-05T03:54:58.822Z,10.96
2022-10-05T03:57:31.999Z,11.00
2022-10-05T04:00:08.278Z,10.99
2022-10-05T04:02:41.848Z,11.00
2022-10-05T04:05:15.381Z,10.98
2022-10-05T04:07:54.783Z,10.99
2022-10-05T04:10:33.978Z,11.07
2022-10-05T04:13:07.542Z,11.08
2022-10-05T04:15:46.816Z,11.04
2022-10-05T04:18:26.285Z,11.04
2022-10-05T04:20:59.759Z,11.02
2022-10-05T04:23:36.028Z,11.04
2022-10-05T04:26:09.589Z,11.08
2022-10-05T04:29:00.971Z,10.98
2022-10-05T04:31:40.546Z,10.90
2022-10-05T04:34:16.714Z,10.86
2022-10-05T04:36:50.245Z,10.91
2022-10-05T04:39:26.723Z,10.94
2022-10-05T04:42:03.221Z,10.98
2022-10-05T04:44:47.944Z,10.96
2022-10-05T04:47:33.129Z,11.06
2022-10-05T04:50:14.844Z,10.90
2022-10-05T04:53:03.541Z,10.86
2022-10-05T04:55:36.920Z,10.90
2022-10-05T04:58:29.882Z,10.85
2022-10-05T05:01:15.609Z,10.88
2022-10-05T05:04:04.025Z,10.90
2022-10-05T05:06:52.643Z,10.88
2022-10-05T05:09:29.077Z,10.91
2022-10-05T05:12:08.314Z,10.92
2022-10-05T05:14:56.810Z,10.89
2022-10-05T05:17:49.910Z,10.84
2022-10-05T05:20:26.104Z,10.90
2022-10-05T05:23:20.783Z,10.92
2022-10-05T05:26:02.914Z,10.89
2022-10-05T05:28:39.342Z,10.88
2022-10-05T05:31:12.980Z,10.71
2022-10-05T05:33:58.479Z,10.86
2022-10-05T05:36:34.431Z,10.80
2022-10-05T05:39:22.498Z,10.93
2022-10-05T05:42:02.078Z,10.91
2022-10-05T05:44:39.098Z,10.97
2022-10-05T05:47:13.134Z,10.93
2022-10-05T05:50:11.525Z,10.87
2022-10-05T05:53:05.731Z,10.92
2022-10-05T05:55:39.782Z,10.82
2022-10-05T05:58:16.170Z,10.93
2022-10-05T06:00:55.193Z,10.95
2022-10-05T06:03:50.087Z,11.04
2022-10-05T06:06:23.470Z,11.10
2022-10-05T06:09:00.683Z,11.14
2022-10-05T06:11:34.255Z,11.18
2022-10-05T06:14:19.526Z,11.18
2022-10-05T06:16:56.012Z,11.30
2022-10-05T06:19:28.816Z,11.30
2022-10-05T06:22:08.565Z,11.26
2022-10-05T06:25:07.524Z,11.32
2022-10-05T06:27:39.650Z,11.35
2022-10-05T06:30:15.734Z,11.37
2022-10-05T06:33:06.063Z,11.38
2022-10-05T06:36:00.564Z,11.44
2022-10-05T06:39:04.150Z,11.44
2022-10-05T06:41:52.762Z,11.68
2022-10-05T06:44:29.088Z,11.68
2022-10-05T06:47:08.806Z,11.60
2022-10-05T06:49:44.938Z,11.58
2022-10-05T06:52:42.517Z,11.70
2022-10-05T06:55:18.815Z,11.80
2022-10-05T06:57:58.100Z,11.77
2022-10-05T07:00:49.709Z,11.86
2022-10-05T07:03:39.769Z,11.80
2022-10-05T07:06:13.144Z,11.76
2022-10-05T07:08:49.444Z,11.84
2022-10-05T07:11:31.510Z,11.82
2022-10-05T07:14:11.024Z,11.90
2022-10-05T07:17:19.645Z,11.88
2022-10-05T07:20:02.094Z,11.85
2022-10-05T07:22:53.643Z,11.85
2022-10-05T07:25:39.093Z,12.10
2022-10-05T07:28:15.334Z,12.23
2022-10-05T07:30:51.872Z,12.18
2022-10-05T07:33:28.089Z,12.45
2022-10-05T07:36:34.065Z,12.49
2022-10-05T07:39:20.184Z,12.41
2022-10-05T07:41:54.588Z,12.59
2022-10-05T07:44:33.846Z,12.65
2022-10-05T07:47:19.386Z,12.66
2022-10-05T07:50:02.365Z,12.65
2022-10-05T07:52:41.783Z,12.75
2022-10-05T07:55:24.498Z,12.85
2022-10-05T07:58:22.093Z,12.99
2022-10-05T08:01:20.278Z,13.08
2022-10-05T08:04:06.179Z,13.13
2022-10-05T08:06:45.622Z,13.18
2022-10-05T08:09:48.268Z,13.22
2022-10-05T08:12:21.813Z,13.38
2022-10-05T08:14:57.934Z,13.40
2022-10-05T08:17:43.501Z,13.56
2022-10-05T08:20:22.916Z,13.69
2022-10-05T08:23:01.939Z,13.93
2022-10-05T08:25:52.951Z,13.92
2022-10-05T08:28:29.159Z,14.00
2022-10-05T08:31:02.623Z,14.11
2022-10-05T08:33:38.531Z,13.99
2022-10-05T08:36:11.946Z,14.06
2022-10-05T08:38:43.402Z,14.07
2022-10-05T08:41:16.815Z,14.13
2022-10-05T08:44:09.714Z,14.14
2022-10-05T08:47:11.977Z,14.24
2022-10-05T08:50:15.988Z,14.26
2022-10-05T08:53:15.463Z,14.34
2022-10-05T08:55:54.758Z,14.42
2022-10-05T08:58:57.604Z,14.59
2022-10-05T09:01:46.341Z,14.74
2022-10-05T09:04:41.066Z,14.79
2022-10-05T09:07:23.642Z,14.92
2022-10-05T09:10:19.828Z,14.89
2022-10-05T09:13:13.275Z,14.86
2022-10-05T09:16:17.115Z,14.99
2022-10-05T09:19:24.206Z,15.06
2022-10-05T09:21:57.642Z,15.21
2022-10-05T09:24:31.221Z,15.23
2022-10-05T09:27:22.587Z,15.24
2022-10-05T09:30:01.647Z,15.28
2022-10-05T09:32:51.692Z,15.44
2022-10-05T09:35:57.058Z,15.52
2022-10-05T09:38:47.200Z,15.62
2022-10-05T09:41:55.848Z,15.58
2022-10-05T09:44:54.523Z,15.70
2022-10-05T09:47:46.180Z,15.81
2022-10-05T09:50:31.021Z,15.99
2022-10-05T09:53:21.153Z,16.18
2022-10-05T09:56:20.252Z,16.03
2022-10-05T09:59:13.297Z,16.15
2022-10-05T10:02:04.516Z,16.12
2022-10-05T10:04:53.269Z,16.13
2022-10-05T10:07:43.254Z,16.05
2022-10-05T10:10:41.726Z,15.99
2022-10-05T10:13:45.565Z,16.11
2022-10-05T10:16:37.032Z,16.26
2022-10-05T10:19:24.017Z,16.08
2022-10-05T10:22:06.786Z,16.20
2022-10-05T10:24:58.257Z,16.19
2022-10-05T10:27:52.351Z,16.16
2022-10-05T10:30:44.009Z,16.17
2022-10-05T10:33:42.132Z,16.34
2022-10-05T10:36:21.458Z,16.64
2022-10-05T10:39:09.252Z,16.65
2022-10-05T10:41:48.535Z,16.92
2022-10-05T10:44:38.545Z,17.06
2022-10-05T10:47:29.993Z,17.10
2022-10-05T10:50:29.361Z,17.08
2022-10-05T10:53:22.714Z,17.16
2022-10-05T10:56:17.286Z,17.50
2022-10-05T10:58:59.905Z,17.41
2022-10-05T11:01:55.297Z,17.43
2022-10-05T11:04:59.176Z,17.63
2022-10-05T11:08:05.885Z,17.68
2022-10-05T11:10:41.965Z,17.63
2022-10-05T11:13:34.786Z,17.69
2022-10-05T11:16:12.533Z,17.74
2022-10-05T11:19:21.712Z,17.88
2022-10-05T11:22:30.074Z,18.10
2022-10-05T11:25:21.755Z,18.00
2022-10-05T11:28:21.329Z,18.28
2022-10-05T11:31:06.805Z,19.28
2022-10-05T11:33:57.018Z,19.91
2022-10-05T11:36:48.654Z,20.46
2022-10-05T11:39:39.949Z,20.42
2022-10-05T11:42:33.194Z,19.75
2022-10-05T11:45:24.995Z,19.85
2022-10-05T11:48:25.785Z,20.56
2022-10-05T11:51:25.224Z,19.43
2022-10-05T11:54:13.437Z,19.32
2022-10-05T11:57:03.669Z,18.90
2022-10-05T11:59:40.047Z,18.78
2022-10-05T12:02:45.230Z,18.51
2022-10-05T12:05:24.558Z,18.64
2022-10-05T12:08:00.696Z,19.44
2022-10-05T12:10:49.087Z,19.88
2022-10-05T12:13:34.146Z,19.79
2022-10-05T12:16:22.772Z,19.72
2022-10-05T12:18:56.349Z,19.40
2022-10-05T12:21:41.884Z,19.26
2022-10-05T12:24:26.881Z,19.12
2022-10-05T12:27:17.902Z,19.13
2022-10-05T12:29:51.418Z,19.14
2022-10-05T12:32:36.744Z,19.11
2022-10-05T12:35:11.655Z,18.96
2022-10-05T12:37:48.221Z,18.94
2022-10-05T12:40:26.903Z,18.96
2022-10-05T12:43:04.648Z,18.86
2022-10-05T12:45:42.560Z,18.94
2022-10-05T12:48:31.299Z,18.92
2022-10-05T12:51:21.918Z,19.03
2022-10-05T12:54:13.435Z,19.00
2022-10-05T12:56:52.995Z,18.99
2022-10-05T12:59:28.919Z,18.98
2022-10-05T13:02:08.787Z,18.98
2022-10-05T13:04:42.462Z,18.90
2022-10-05T13:07:30.972Z,18.98
2022-10-05T13:10:13.090Z,18.98
2022-10-05T13:12:55.602Z,19.06
2022-10-05T13:15:37.990Z,19.16
2022-10-05T13:18:32.533Z,19.17
2022-10-05T13:21:09.151Z,19.17
2022-10-05T13:24:05.210Z,19.17
2022-10-05T13:26:39.032Z,19.28
2022-10-05T13:29:24.989Z,19.30
2022-10-05T13:32:02.223Z,19.32
2022-10-05T13:34:41.724Z,19.36
2022-10-05T13:37:33.314Z,19.37
2022-10-05T13:40:06.791Z,19.31
2022-10-05T13:42:40.365Z,19.34
2022-10-05T13:45:20.136Z,19.36
2022-10-05T13:48:14.845Z,19.40
2022-10-05T13:51:19.881Z,19.42
2022-10-05T13:54:09.991Z,19.46
2022-10-05T13:56:52.324Z,19.31
2022-10-05T13:59:39.651Z,19.35
2022-10-05T14:02:15.927Z,19.26
2022-10-05T14:04:52.052Z,19.20
2022-10-05T14:07:43.016Z,19.28
2022-10-05T14:10:18.426Z,19.18
2022-10-05T14:12:51.858Z,19.10
2022-10-05T14:15:25.649Z,19.02
2022-10-05T14:17:57.987Z,18.98
2022-10-05T14:20:34.636Z,18.81
2022-10-05T14:23:08.086Z,18.81
2022-10-05T14:25:51.994Z,18.84
2022-10-05T14:28:31.443Z,18.87
2022-10-05T14:31:19.128Z,18.76
2022-10-05T14:33:50.076Z,18.67
2022-10-05T14:36:43.962Z,18.64
2022-10-05T14:39:15.331Z,18.70
2022-10-05T14:41:51.349Z,18.70
2022-10-05T14:47:04.475Z,18.57
2022-10-05T14:49:36.898Z,18.48
2022-10-05T14:52:27.061Z,18.48
2022-10-05T14:55:01.190Z,18.45
2022-10-05T14:57:38.890Z,18.44
2022-10-05T15:00:17.552Z,18.44
2022-10-05T15:03:03.439Z,18.43
2022-10-05T15:05:55.235Z,18.50
2022-10-05T15:08:38.970Z,18.34
2022-10-05T15:11:36.948Z,18.35
2022-10-05T15:14:16.443Z,18.38
2022-10-05T15:16:49.416Z,18.38
2022-10-05T15:19:25.970Z,18.30
2022-10-05T15:22:02.549Z,18.28
2022-10-05T15:24:49.329Z,18.29
2022-10-05T15:27:43.950Z,18.21
2022-10-05T15:30:21.751Z,18.06
2022-10-05T15:33:15.612Z,18.10
2022-10-05T15:35:53.247Z,17.96
2022-10-05T15:38:30.034Z,18.02
2022-10-05T15:41:09.539Z,17.99
2022-10-05T15:43:44.716Z,18.08
2022-10-05T15:46:18.264Z,17.98
2022-10-05T15:49:09.791Z,18.00
2022-10-05T15:52:02.482Z,17.98
2022-10-05T15:54:44.609Z,17.87
2022-10-05T15:57:42.249Z,17.81
2022-10-05T16:00:15.333Z,17.86
2022-10-05T16:02:57.512Z,17.83
2022-10-05T16:06:06.054Z,17.64
2022-10-05T16:08:51.331Z,17.72
2022-10-05T16:11:47.416Z,17.72
2022-10-05T16:14:43.566Z,17.57
2022-10-05T16:17:20.286Z,17.59
2022-10-05T16:20:03.188Z,17.42
2022-10-05T16:22:52.141Z,17.41
2022-10-05T16:25:28.802Z,17.28
2022-10-05T16:28:05.903Z,17.21
2022-10-05T16:30:42.483Z,17.28
2022-10-05T16:33:39.814Z,17.28
2022-10-05T16:36:15.378Z,17.12
2022-10-05T16:38:52.062Z,17.02
2022-10-05T16:41:43.038Z,16.97
2022-10-05T16:44:25.387Z,16.91
2022-10-05T16:46:58.865Z,16.84
2022-10-05T16:49:38.230Z,16.74
2022-10-05T16:52:11.726Z,16.86
2022-10-05T16:54:47.885Z,16.79
2022-10-05T16:57:29.201Z,16.70
2022-10-05T17:00:19.221Z,16.66
2022-10-05T17:03:16.472Z,16.66
2022-10-05T17:06:01.895Z,16.44
2022-10-05T17:08:36.667Z,16.39
2022-10-05T17:11:29.785Z,16.40
2022-10-05T17:14:18.185Z,16.22
2022-10-05T17:17:19.059Z,16.13
2022-10-05T17:20:15.537Z,16.07
2022-10-05T17:22:55.048Z,15.96
2022-10-05T17:25:44.812Z,16.06
2022-10-05T17:28:21.485Z,15.98
2022-10-05T17:30:59.331Z,15.89
2022-10-05T17:33:31.884Z,15.84
2022-10-05T17:36:07.038Z,15.90
2022-10-05T17:38:43.323Z,15.76
2022-10-05T17:41:16.805Z,15.90
2022-10-05T17:44:17.453Z,15.84
2022-10-05T17:46:59.623Z,15.70
2022-10-05T17:50:18.946Z,15.70
2022-10-05T17:53:12.377Z,15.66
2022-10-05T17:55:47.080Z,15.67
2022-10-05T17:58:29.769Z,15.64
2022-10-05T18:01:04.181Z,15.68
2022-10-05T18:03:46.708Z,15.56
2022-10-05T18:06:32.149Z,15.48
2022-10-05T18:09:21.769Z,15.46
2022-10-05T18:12:20.472Z,15.42
2022-10-05T18:14:56.944Z,15.52
2022-10-05T18:17:46.877Z,15.54
2022-10-05T18:20:32.143Z,15.56
2022-10-05T18:23:09.608Z,15.44
2022-10-05T18:25:51.986Z,15.40
2022-10-05T18:28:34.312Z,15.46
2022-10-05T18:31:29.162Z,15.43
2022-10-05T18:34:18.056Z,15.42
2022-10-05T18:37:16.012Z,15.35
2022-10-05T18:40:25.914Z,15.51
2022-10-05T18:43:26.505Z,15.35
2022-10-05T18:46:11.615Z,15.42
2022-10-05T18:49:01.738Z,15.46
2022-10-05T18:51:51.562Z,15.37
2022-10-05T18:54:43.169Z,15.37
2022-10-05T18:57:37.548Z,15.36
2022-10-05T19:00:20.022Z,15.36
2022-10-05T19:03:05.822Z,15.43
2022-10-05T19:05:48.125Z,15.34
2022-10-05T19:08:21.946Z,15.37
2022-10-05T19:10:55.487Z,15.35
2022-10-05T19:13:50.913Z,15.52
2022-10-05T19:16:59.845Z,15.36
2022-10-05T19:19:43.811Z,15.42
2022-10-05T19:22:40.297Z,15.37
2022-10-05T19:25:33.287Z,15.31
2022-10-05T19:28:21.179Z,15.38
2022-10-05T19:31:14.375Z,15.36
2022-10-05T19:33:47.999Z,15.33
2022-10-05T19:36:48.851Z,15.18
2022-10-05T19:39:48.409Z,15.32
2022-10-05T19:42:30.650Z,15.16
2022-10-05T19:45:07.041Z,15.12
2022-10-05T19:48:10.866Z,15.06
2022-10-05T19:50:44.485Z,15.01
2022-10-05T19:53:17.416Z,15.11
2022-10-05T19:55:48.358Z,15.03
2022-10-05T19:58:27.288Z,14.94
2022-10-05T20:01:00.405Z,14.96
2022-10-05T20:03:33.573Z,14.98
2022-10-05T20:06:06.706Z,14.90
2022-10-05T20:08:45.829Z,14.90
2022-10-05T20:11:23.408Z,14.83
2022-10-05T20:13:56.874Z,14.95
2022-10-05T20:16:48.140Z,14.87
2022-10-05T20:19:38.383Z,14.92
2022-10-05T20:22:40.053Z,15.00
2022-10-05T20:25:22.178Z,14.87
2022-10-05T20:27:57.779Z,14.94
2022-10-05T20:30:31.601Z,15.01
2022-10-05T20:33:03.634Z,14.91
2022-10-05T20:35:34.035Z,14.88
2022-10-05T20:38:04.382Z,14.88
2022-10-05T20:40:35.058Z,14.90
2022-10-05T20:43:05.453Z,14.96
2022-10-05T20:45:36.220Z,14.86
2022-10-05T20:48:06.644Z,15.02
2022-10-05T20:50:38.741Z,14.94
2022-10-05T20:53:11.953Z,14.82
2022-10-05T20:55:41.276Z,14.79
2022-10-05T20:58:11.634Z,14.86
2022-10-05T21:00:59.940Z,14.98
2022-10-05T21:03:30.663Z,14.85
2022-10-05T21:06:01.016Z,14.84
2022-10-05T21:08:31.724Z,14.87
2022-10-05T21:11:02.148Z,14.84
2022-10-05T21:13:32.456Z,14.81
2022-10-05T21:16:05.070Z,14.86
2022-10-05T21:18:35.581Z,14.80
2022-10-05T21:21:06.126Z,14.78
2022-10-05T21:23:36.518Z,14.69
2022-10-05T21:26:07.965Z,14.71
2022-10-05T21:28:39.416Z,14.82
2022-10-05T21:31:10.878Z,14.87
2022-10-05T21:33:41.288Z,14.77
2022-10-05T21:36:11.905Z,14.80
2022-10-05T21:38:42.841Z,14.76
2022-10-05T21:41:13.248Z,14.87
2022-10-05T21:43:44.053Z,14.88
2022-10-05T21:46:19.097Z,14.71
2022-10-05T21:48:50.893Z,14.71
2022-10-05T21:51:23.251Z,14.76
2022-10-05T21:53:58.864Z,14.71
2022-10-05T21:56:35.464Z,14.76
2022-10-05T21:59:09.449Z,14.76
2022-10-05T22:01:39.836Z,14.73
2022-10-05T22:04:10.220Z,14.76
2022-10-05T22:06:40.738Z,14.73
2022-10-05T22:09:11.944Z,14.74
2022-10-05T22:11:42.273Z,14.72
2022-10-05T22:14:15.419Z,14.75
2022-10-05T22:16:45.878Z,14.79
2022-10-05T22:19:19.651Z,14.83
2022-10-05T22:21:50.037Z,14.85
2022-10-05T22:24:20.403Z,14.79
2022-10-05T22:26:52.776Z,14.78
2022-10-05T22:29:23.616Z,14.76
2022-10-05T22:31:58.298Z,14.80
2022-10-05T22:34:30.269Z,14.72
2022-10-05T22:37:01.948Z,14.73
2022-10-05T22:39:32.267Z,14.76
2022-10-05T22:42:02.774Z,14.78
2022-10-05T22:44:33.885Z,14.78
2022-10-05T22:47:04.856Z,14.75
2022-10-05T22:49:35.236Z,14.79
2022-10-05T22:52:05.585Z,14.90
2022-10-05T22:54:37.400Z,14.91
2022-10-05T22:57:08.017Z,14.93
2022-10-05T22:59:38.386Z,14.94
2022-10-05T23:02:08.765Z,14.94
2022-10-05T23:04:39.249Z,14.94
2022-10-05T23:07:09.584Z,14.95
2022-10-05T23:09:39.956Z,14.92
2022-10-05T23:12:12.039Z,14.88
2022-10-05T23:14:42.443Z,14.84
2022-10-05T23:17:12.775Z,14.82
2022-10-05T23:19:43.162Z,14.79
2022-10-05T23:22:13.567Z,14.76
2022-10-05T23:24:43.946Z,14.79
2022-10-05T23:27:14.416Z,14.82
2022-10-05T23:29:44.801Z,14.89
2022-10-05T23:32:15.135Z,14.86
2022-10-05T23:34:45.541Z,14.86
2022-10-05T23:37:17.685Z,14.84
2022-10-05T23:39:48.195Z,14.85
2022-10-05T23:42:18.904Z,14.88
2022-10-05T23:44:49.313Z,14.96
2022-10-05T23:47:19.689Z,14.95
2022-10-05T23:49:50.165Z,14.89
2022-10-05T23:52:20.589Z,15.04
2022-10-05T23:54:50.988Z,14.91
2022-10-05T23:57:21.476Z,14.93
2022-10-05T23:59:51.853Z,15.08
